Time;durP1;ratioP1;P1;durP2;ratioP2;P2;SDS_P1;SDS_P2;PMS_P1;PMS_P2;Temp;Humidity;BMP_temperature;BMP_pressure;BME280_temperature;BME280_humidity;BME280_pressure;Samples;Min_cycle;Max_cycle;Signal;HPM_P1;HPM_P2
2022/04/22 00:02:01;;;;;;;16.90;11.98;;;5.60;99.90;;;;;;5015064;28;20605;-62
2022/04/22 00:04:33;;;;;;;17.23;12.18;;;5.60;99.90;;;;;;5014723;28;20061;-61
2022/04/22 00:07:00;;;;;;;19.35;13.63;;;5.50;99.90;;;;;;5013178;28;20704;-61
2022/04/22 00:09:27;;;;;;;24.45;15.18;;;5.50;99.90;;;;;;5014313;28;20049;-61
2022/04/22 00:11:54;;;;;;;23.25;14.27;;;5.40;99.90;;;;;;5014662;28;20139;-62
2022/04/22 00:14:21;;;;;;;20.02;13.90;;;5.40;99.90;;;;;;5014434;28;20045;-61
2022/04/22 00:16:47;;;;;;;18.08;13.38;;;5.40;99.90;;;;;;5012780;28;20156;-60
2022/04/22 00:19:14;;;;;;;;;;;5.40;99.90;;;;;;5019017;28;20033;-61
2022/04/22 00:21:42;;;;;;;20.58;13.38;;;5.30;99.90;;;;;;5034049;28;19924;-61
2022/04/22 00:24:08;;;;;;;26.20;14.95;;;5.30;99.90;;;;;;5033972;28;20064;-61
2022/04/22 00:26:35;;;;;;;;;;;5.30;99.90;;;;;;5034955;28;20045;-61
2022/04/22 00:29:02;;;;;;;18.98;13.52;;;5.30;99.90;;;;;;5031418;28;20559;-61
2022/04/22 00:31:29;;;;;;;;;;;5.20;99.90;;;;;;5034979;28;20079;-61
2022/04/22 00:33:56;;;;;;;16.70;12.88;;;5.20;99.90;;;;;;5034470;28;20019;-62
2022/04/22 00:36:23;;;;;;;18.77;13.52;;;5.20;99.90;;;;;;5034700;28;20060;-61
2022/04/22 00:38:50;;;;;;;20.98;14.98;;;5.10;99.90;;;;;;5012847;28;20045;-62
2022/04/22 00:41:16;;;;;;;;;;;5.10;99.90;;;;;;5030701;28;20041;-62
2022/04/22 00:43:49;;;;;;;19.13;13.38;;;5.10;99.90;;;;;;5024129;28;19964;-62
2022/04/22 00:46:17;;;;;;;19.95;12.38;;;5.00;99.90;;;;;;5014035;28;20072;-61
2022/04/22 00:48:45;;;;;;;19.77;13.85;;;5.00;99.90;;;;;;5013326;28;20041;-61
2022/04/22 00:51:12;;;;;;;19.95;12.88;;;5.00;99.90;;;;;;5013434;28;20091;-61
2022/04/22 00:53:40;;;;;;;21.85;14.75;;;4.90;99.90;;;;;;5013922;28;20051;-62
2022/04/22 00:56:10;;;;;;;27.65;14.13;;;4.90;99.90;;;;;;5013971;28;20126;-62
2022/04/22 00:58:40;;;;;;;27.73;14.70;;;4.80;99.90;;;;;;5013299;28;20667;-62
2022/04/22 01:01:08;;;;;;;23.55;16.50;;;4.80;99.90;;;;;;5013362;28;20048;-61
2022/04/22 01:03:35;;;;;;;26.63;16.70;;;4.70;99.90;;;;;;5013872;28;20454;-62
2022/04/22 01:11:36;;;;;;;21.55;15.18;;;4.50;99.90;;;;;;5014316;28;20107;-61
2022/04/22 01:14:05;;;;;;;21.95;15.98;;;4.40;99.90;;;;;;5011767;28;20045;-61
2022/04/22 01:16:33;;;;;;;24.15;14.80;;;4.40;99.90;;;;;;5020398;28;20888;-61
2022/04/22 01:19:00;;;;;;;21.95;15.30;;;4.40;99.90;;;;;;5014440;28;20052;-61
2022/04/22 01:21:27;;;;;;;;;;;4.40;99.90;;;;;;5034243;28;20115;-62
2022/04/22 01:23:53;;;;;;;20.27;13.82;;;4.40;99.90;;;;;;5032687;28;19924;-62
2022/04/22 01:26:20;;;;;;;20.60;14.15;;;4.50;99.90;;;;;;5033830;28;20049;-62
2022/04/22 01:28:47;;;;;;;;;;;4.40;99.90;;;;;;5033286;28;20091;-61
2022/04/22 01:31:14;;;;;;;21.73;14.52;;;4.40;99.90;;;;;;5033738;28;20629;-61
2022/04/22 01:33:41;;;;;;;19.73;13.85;;;4.40;99.90;;;;;;5032944;28;20061;-62
2022/04/22 01:36:08;;;;;;;22.75;14.10;;;4.40;99.90;;;;;;5032751;28;20094;-61
2022/04/22 01:38:35;;;;;;;20.67;13.95;;;4.30;99.90;;;;;;5019447;28;20053;-62
2022/04/22 01:41:02;;;;;;;;;;;4.30;99.90;;;;;;5012863;28;20083;-61
2022/04/22 01:43:29;;;;;;;22.30;15.23;;;4.30;99.90;;;;;;5020203;28;19971;-61
2022/04/22 01:45:56;;;;;;;;;;;4.30;99.90;;;;;;5034121;28;20403;-61
2022/04/22 01:48:22;;;;;;;21.33;14.32;;;4.20;99.90;;;;;;5021766;28;20446;-60
2022/04/22 01:50:49;;;;;;;25.17;16.42;;;4.20;99.90;;;;;;5014442;28;20059;-61
2022/04/22 01:53:16;;;;;;;;;;;4.20;99.90;;;;;;5017268;28;20049;-61
2022/04/22 01:55:43;;;;;;;23.38;15.65;;;4.10;99.90;;;;;;5017743;28;19931;-62
2022/04/22 01:58:09;;;;;;;;;;;4.00;99.90;;;;;;5016700;28;20046;-62
2022/04/22 02:00:36;;;;;;;22.13;14.95;;;4.00;99.90;;;;;;5017182;28;19925;-61
2022/04/22 02:03:03;;;;;;;22.38;15.38;;;3.90;99.90;;;;;;5015903;28;20104;-62
2022/04/22 02:05:30;;;;;;;21.58;14.63;;;3.90;99.90;;;;;;5017064;28;20699;-61
2022/04/22 02:07:56;;;;;;;26.50;17.50;;;3.80;99.90;;;;;;5016759;28;20046;-61
2022/04/22 02:10:23;;;;;;;25.02;17.50;;;3.90;99.90;;;;;;5016893;28;20049;-61
2022/04/22 02:12:50;;;;;;;;;;;3.90;99.90;;;;;;5017668;28;20057;-62
2022/04/22 02:15:18;;;;;;;24.33;15.95;;;3.90;99.90;;;;;;5019316;28;19925;-60
2022/04/22 02:17:45;;;;;;;24.45;15.45;;;3.90;99.90;;;;;;5018699;28;20049;-60
2022/04/22 02:20:12;;;;;;;29.65;15.80;;;3.90;99.90;;;;;;5028038;28;20033;-60
2022/04/22 02:22:39;;;;;;;22.67;15.10;;;3.90;99.90;;;;;;5036249;28;20557;-60
2022/04/22 02:25:08;;;;;;;22.42;15.23;;;3.90;99.90;;;;;;5037319;28;20044;-61
2022/04/22 02:30:21;;;;;;;23.60;14.48;;;3.90;99.90;;;;;;5037221;28;20103;-61
2022/04/22 02:32:48;;;;;;;21.42;14.60;;;3.90;99.90;;;;;;5035009;28;21101;-61
2022/04/22 02:35:14;;;;;;;;;;;3.80;99.90;;;;;;5036742;28;20130;-60
2022/04/22 02:37:41;;;;;;;26.77;17.30;;;3.80;99.90;;;;;;5035879;28;20015;-61
2022/04/22 02:40:08;;;;;;;;;;;3.80;99.90;;;;;;5023747;28;20503;-60
2022/04/22 02:45:26;;;;;;;23.13;15.02;;;3.70;99.90;;;;;;5034482;28;20040;-63
2022/04/22 02:47:56;;;;;;;21.05;14.73;;;3.70;99.90;;;;;;5030559;28;20049;-61
2022/04/22 02:50:23;;;;;;;20.70;14.32;;;3.60;99.90;;;;;;5030057;28;20890;-61
2022/04/22 02:52:50;;;;;;;23.08;15.57;;;3.60;99.90;;;;;;5035737;28;20567;-61
2022/04/22 02:55:17;;;;;;;;;;;3.60;99.90;;;;;;5037352;28;20581;-60
2022/04/22 02:57:44;;;;;;;22.98;15.07;;;3.60;99.90;;;;;;5010974;28;20473;-60
2022/04/22 03:00:13;;;;;;;23.67;15.77;;;3.50;99.90;;;;;;5015924;28;20583;-61
2022/04/22 03:02:42;;;;;;;22.35;15.52;;;3.50;99.90;;;;;;5008360;28;20112;-61
2022/04/22 03:05:10;;;;;;;24.48;17.08;;;3.50;99.90;;;;;;4996507;28;20048;-61
2022/04/22 03:07:38;;;;;;;27.40;17.40;;;3.50;99.90;;;;;;4993695;28;20049;-61
2022/04/22 03:10:06;;;;;;;26.95;17.15;;;3.40;99.90;;;;;;4996500;28;20056;-61
2022/04/22 03:12:34;;;;;;;27.23;17.15;;;3.40;99.90;;;;;;4996493;28;20049;-61
2022/04/22 03:15:01;;;;;;;23.02;15.75;;;3.40;99.90;;;;;;4999611;28;20056;-61
2022/04/22 03:17:28;;;;;;;22.67;14.90;;;3.40;99.90;;;;;;5020612;28;20046;-61
2022/04/22 03:19:55;;;;;;;;;;;3.40;99.90;;;;;;5024907;28;20056;-61
2022/04/22 03:22:22;;;;;;;21.85;14.90;;;3.40;99.90;;;;;;5035694;28;20466;-62
2022/04/22 03:24:48;;;;;;;;;;;3.40;99.90;;;;;;5036114;28;20045;-61
2022/04/22 03:27:15;;;;;;;28.48;16.92;;;3.40;99.90;;;;;;5034549;28;20022;-61
2022/04/22 03:29:42;;;;;;;26.73;17.45;;;3.40;99.90;;;;;;5035806;28;20048;-61
2022/04/22 03:32:11;;;;;;;26.13;16.20;;;3.40;99.90;;;;;;5035409;28;20048;-62
2022/04/22 03:34:38;;;;;;;22.42;15.05;;;3.30;99.90;;;;;;5035295;28;20051;-62
2022/04/22 03:37:06;;;;;;;22.50;15.65;;;3.30;99.90;;;;;;5034328;28;20049;-61
2022/04/22 03:39:33;;;;;;;25.90;16.83;;;3.30;99.90;;;;;;5033598;28;20102;-61
2022/04/22 03:42:01;;;;;;;24.55;16.55;;;3.20;99.90;;;;;;4994358;28;20104;-61
2022/04/22 03:44:27;;;;;;;25.30;16.98;;;3.30;99.90;;;;;;5027371;28;20048;-61
2022/04/22 03:46:54;;;;;;;;;;;3.30;99.90;;;;;;5035406;28;20053;-61
2022/04/22 03:49:21;;;;;;;23.30;15.38;;;3.30;99.90;;;;;;5016962;28;19972;-61
2022/04/22 03:51:48;;;;;;;28.55;17.65;;;3.30;99.90;;;;;;5015260;28;20045;-62
2022/04/22 03:54:18;;;;;;;25.45;16.05;;;3.30;99.90;;;;;;5013514;28;20057;-61
2022/04/22 03:59:31;;;;;;;25.42;16.17;;;3.20;99.90;;;;;;5015254;28;20068;-62
2022/04/22 04:01:57;;;;;;;24.30;14.82;;;3.20;99.90;;;;;;5015647;28;20076;-61
2022/04/22 04:04:24;;;;;;;23.30;15.40;;;3.20;99.90;;;;;;5015130;28;20119;-61
2022/04/22 04:06:51;;;;;;;;;;;3.20;99.90;;;;;;5014726;28;20049;-61
2022/04/22 04:17:38;;;;;;;25.45;17.15;;;3.10;99.90;;;;;;5018384;28;20045;-61
2022/04/22 04:25:39;;;;;;;26.08;17.50;;;3.10;99.90;;;;;;5034849;28;20489;-61
2022/04/22 04:28:10;;;;;;;25.25;18.25;;;3.00;99.90;;;;;;5033803;28;20794;-62
2022/04/22 04:30:41;;;;;;;26.10;18.17;;;3.00;99.90;;;;;;5035078;28;20037;-61
2022/04/22 04:33:08;;;;;;;25.70;17.40;;;3.00;99.90;;;;;;5034527;28;20049;-62
2022/04/22 04:35:35;;;;;;;34.55;18.23;;;3.00;99.90;;;;;;5033960;28;20091;-61
2022/04/22 04:38:02;;;;;;;30.23;19.42;;;3.00;99.90;;;;;;5032868;28;20057;-61
2022/04/22 04:40:29;;;;;;;29.95;19.13;;;3.00;99.90;;;;;;5023657;28;20099;-62
2022/04/22 04:42:56;;;;;;;;;;;3.00;99.90;;;;;;4999716;28;20538;-61
2022/04/22 04:45:23;;;;;;;30.63;19.88;;;3.00;99.90;;;;;;5015930;28;19925;-61
2022/04/22 04:47:50;;;;;;;27.80;18.65;;;3.00;99.90;;;;;;5013085;28;20126;-61
2022/04/22 04:50:17;;;;;;;;;;;3.00;99.90;;;;;;5020715;28;20045;-62
2022/04/22 04:52:43;;;;;;;27.27;17.60;;;3.00;99.90;;;;;;5033691;28;19960;-61
2022/04/22 04:55:13;;;;;;;23.48;15.82;;;3.00;99.90;;;;;;5034050;28;20399;-61
2022/04/22 04:57:41;;;;;;;28.33;20.00;;;3.00;99.90;;;;;;5033391;28;20750;-60
2022/04/22 05:00:15;;;;;;;28.50;18.92;;;3.00;99.90;;;;;;5034473;28;20698;-61
2022/04/22 05:02:42;;;;;;;28.70;18.58;;;3.00;99.90;;;;;;5033617;28;20636;-61
2022/04/22 05:05:09;;;;;;;;;;;3.10;99.90;;;;;;5034143;28;20063;-61
2022/04/22 05:07:59;;;;;;;31.52;19.73;;;3.10;99.90;;;;;;5033146;28;19994;-61
2022/04/22 05:10:31;;;;;;;26.33;18.15;;;3.10;99.90;;;;;;5034144;28;20144;-61
2022/04/22 05:12:59;;;;;;;26.52;18.35;;;3.10;99.90;;;;;;5033841;28;20135;-61
2022/04/22 05:15:27;;;;;;;28.48;19.17;;;3.10;99.90;;;;;;5028747;28;20150;-62
2022/04/22 05:17:55;;;;;;;29.63;19.23;;;3.10;99.90;;;;;;5013314;28;20046;-62
2022/04/22 05:20:26;;;;;;;25.05;16.88;;;3.20;99.90;;;;;;5018744;28;20065;-62
2022/04/22 05:22:54;;;;;;;27.70;18.98;;;3.20;99.90;;;;;;5013806;28;21020;-61
2022/04/22 05:25:22;;;;;;;29.40;18.33;;;3.20;99.90;;;;;;5012500;28;20049;-61
2022/04/22 05:27:49;;;;;;;30.27;18.92;;;3.30;99.90;;;;;;5026673;28;20828;-61
2022/04/22 05:33:03;;;;;;;26.80;17.83;;;3.40;99.90;;;;;;5010822;28;20049;-55
2022/04/22 05:35:31;;;;;;;30.38;20.58;;;3.50;99.90;;;;;;5011672;28;20053;-57
2022/04/22 05:38:03;;;;;;;25.70;18.65;;;3.60;99.90;;;;;;5010784;28;20660;-57
2022/04/22 05:40:36;;;;;;;30.65;20.83;;;3.60;99.90;;;;;;5015505;28;20059;-57
2022/04/22 05:43:07;;;;;;;27.88;19.80;;;3.80;99.90;;;;;;5012289;28;20037;-57
2022/04/22 05:45:36;;;;;;;30.02;20.88;;;3.80;99.90;;;;;;5012220;28;20491;-57
2022/04/22 05:48:04;;;;;;;31.67;20.98;;;3.90;99.90;;;;;;5012397;28;20041;-58
2022/04/22 05:50:31;;;;;;;31.52;21.10;;;4.00;99.90;;;;;;5016652;28;20111;-57
2022/04/22 05:52:58;;;;;;;29.35;19.88;;;4.10;99.90;;;;;;5033570;28;20044;-58
2022/04/22 05:55:29;;;;;;;30.17;20.38;;;4.20;99.90;;;;;;5033736;28;20102;-57
2022/04/22 05:57:57;;;;;;;36.97;20.52;;;4.30;99.90;;;;;;5033275;28;20055;-58
2022/04/22 06:00:26;;;;;;;34.00;20.48;;;4.40;99.90;;;;;;5033610;28;20107;-57
2022/04/22 06:02:53;;;;;;;33.72;20.95;;;4.60;99.90;;;;;;5023486;28;20038;-56
2022/04/22 06:05:21;;;;;;;30.52;21.33;;;4.70;99.90;;;;;;5015168;28;20199;-54
2022/04/22 06:10:31;;;;;;;29.50;19.08;;;4.80;99.90;;;;;;5012893;28;20037;-56
2022/04/22 06:10:39;;;;;;;33.38;20.48;;;5.00;99.90;;;;;;5012403;28;20115;-55
2022/04/22 06:13:06;;;;;;;31.38;20.80;;;5.10;99.90;;;;;;5012688;28;20050;-55
2022/04/22 06:15:34;;;;;;;32.40;21.98;;;5.20;99.90;;;;;;5020750;28;20043;-56
2022/04/22 06:18:01;;;;;;;31.15;19.73;;;5.20;99.90;;;;;;5019914;28;20045;-57
2022/04/22 06:20:28;;;;;;;31.88;19.83;;;5.30;99.90;;;;;;4999766;28;20053;-55
2022/04/22 06:22:55;;;;;;;30.08;20.63;;;5.40;99.90;;;;;;4983168;28;20571;-56
2022/04/22 06:25:23;;;;;;;29.30;20.38;;;5.40;99.90;;;;;;4984212;28;20899;-55
2022/04/22 06:27:50;;;;;;;28.40;21.10;;;5.50;99.90;;;;;;4983535;28;20076;-62
2022/04/22 06:30:19;;;;;;;29.67;20.63;;;5.50;99.90;;;;;;4965803;28;20034;-57
2022/04/22 06:32:49;;;;;;;30.10;20.00;;;5.60;99.90;;;;;;4981810;28;20096;-57
2022/04/22 06:35:21;;;;;;;26.00;18.00;;;5.70;99.90;;;;;;4981123;28;20245;-54
2022/04/22 06:37:52;;;;;;;27.17;17.88;;;5.70;99.90;;;;;;4984246;28;20345;-55
2022/04/22 06:45:52;;;;;;;29.92;19.23;;;6.00;99.90;;;;;;4999288;28;20049;-55
2022/04/22 06:48:31;;;;;;;33.00;21.20;;;6.00;99.90;;;;;;4984015;28;20962;-55
2022/04/22 06:51:17;;;;;;;31.00;19.85;;;6.10;99.90;;;;;;4983427;28;20044;-55
2022/04/22 06:53:44;;;;;;;29.35;20.05;;;6.20;99.90;;;;;;4983514;28;20609;-56
2022/04/22 06:56:13;;;;;;;26.40;18.38;;;6.30;99.90;;;;;;4984315;28;20063;-56
2022/04/22 06:58:41;;;;;;;27.65;19.38;;;6.30;99.90;;;;;;4982775;28;20171;-56
2022/04/22 07:01:09;;;;;;;34.55;21.02;;;6.30;99.90;;;;;;4986607;28;20041;-56
2022/04/22 07:03:57;;;;;;;28.63;20.08;;;6.40;99.90;;;;;;4985021;28;20045;-60
2022/04/22 07:06:25;;;;;;;30.35;20.77;;;6.60;99.90;;;;;;4986023;28;20743;-57
2022/04/22 07:08:52;;;;;;;29.48;19.90;;;6.70;99.90;;;;;;4985622;28;20045;-58
2022/04/22 07:11:29;;;;;;;27.58;19.40;;;6.80;99.90;;;;;;4984747;28;20567;-57
2022/04/22 07:14:00;;;;;;;33.78;20.65;;;6.90;99.90;;;;;;4979674;28;20053;-58
2022/04/22 07:16:28;;;;;;;31.48;21.15;;;6.90;99.90;;;;;;4984712;28;20464;-58
2022/04/22 07:18:56;;;;;;;29.35;20.55;;;7.00;99.90;;;;;;4983066;28;20516;-59
2022/04/22 07:21:24;;;;;;;26.65;18.70;;;7.00;99.90;;;;;;5003761;28;21089;-56
2022/04/22 07:23:52;;;;;;;26.50;19.05;;;7.10;99.90;;;;;;4968330;28;20464;-57
2022/04/22 07:26:20;;;;;;;28.70;19.42;;;7.20;99.90;;;;;;4963010;28;20618;-56
2022/04/22 07:28:49;;;;;;;24.17;17.45;;;7.30;99.90;;;;;;4962492;28;20330;-56
2022/04/22 07:31:20;;;;;;;25.52;18.58;;;7.50;99.90;;;;;;4963287;28;20037;-56
2022/04/22 07:33:49;;;;;;;28.92;19.33;;;7.60;99.90;;;;;;4964648;28;20060;-57
2022/04/22 07:36:17;;;;;;;25.88;18.45;;;7.80;99.90;;;;;;4966387;28;20393;-56
2022/04/22 07:38:44;;;;;;;25.50;19.15;;;8.00;99.90;;;;;;4962379;28;20141;-57
2022/04/22 07:41:18;;;;;;;25.42;18.08;;;8.10;99.90;;;;;;4996463;28;20045;-55
2022/04/22 07:46:48;;;;;;;30.50;19.85;;;8.40;99.90;;;;;;4985982;28;20041;-56
2022/04/22 07:49:16;;;;;;;27.85;19.45;;;8.70;99.90;;;;;;4984315;28;20582;-55
2022/04/22 07:51:43;;;;;;;25.42;18.23;;;9.00;99.90;;;;;;4982513;28;20042;-57
2022/04/22 07:54:14;;;;;;;24.35;18.25;;;9.30;99.90;;;;;;4985748;28;20421;-57
2022/04/22 07:56:41;;;;;;;29.08;18.90;;;9.60;99.90;;;;;;4982575;28;20440;-55
2022/04/22 07:59:09;;;;;;;23.55;17.08;;;9.90;99.90;;;;;;4985854;28;20721;-58
2022/04/22 08:01:36;;;;;;;21.98;16.23;;;10.30;99.90;;;;;;4985326;28;20595;-57
2022/04/22 08:04:03;;;;;;;26.00;17.40;;;10.70;99.90;;;;;;4983776;28;20206;-58
2022/04/22 08:06:31;;;;;;;21.17;16.10;;;11.10;99.90;;;;;;4985324;28;21014;-58
2022/04/22 08:08:58;;;;;;;22.33;16.67;;;11.60;99.90;;;;;;4984702;28;20395;-58
2022/04/22 08:11:25;;;;;;;19.90;15.63;;;11.70;99.90;;;;;;4985885;28;20051;-58
2022/04/22 08:13:52;;;;;;;;;;;11.60;99.90;;;;;;4984625;28;20056;-59
2022/04/22 08:16:19;;;;;;;26.33;16.27;;;11.60;99.90;;;;;;4990430;28;19935;-57
2022/04/22 08:18:45;;;;;;;26.67;17.10;;;11.70;99.90;;;;;;4983007;28;20076;-58
2022/04/22 08:21:12;;;;;;;19.85;14.52;;;12.00;99.90;;;;;;5002897;28;20056;-54
2022/04/22 08:23:39;;;;;;;20.33;14.95;;;12.20;99.90;;;;;;5005014;28;20565;-52
2022/04/22 08:26:07;;;;;;;20.65;14.00;;;12.50;99.90;;;;;;5003961;28;20202;-53
2022/04/22 08:28:34;;;;;;;19.52;15.57;;;12.40;99.90;;;;;;5004661;28;20038;-55
2022/04/22 08:31:01;;;;;;;28.67;16.23;;;12.50;99.90;;;;;;4996639;28;20042;-53
2022/04/22 08:33:28;;;;;;;19.75;14.45;;;12.60;99.90;;;;;;4981154;28;20044;-58
2022/04/22 08:35:56;;;;;;;20.38;15.10;;;12.70;99.90;;;;;;4983487;28;20049;-58
2022/04/22 08:38:23;;;;;;;20.75;15.13;;;12.80;99.90;;;;;;4981371;28;20064;-58
2022/04/22 08:40:51;;;;;;;21.85;14.52;;;12.80;99.90;;;;;;4992216;28;20895;-58
2022/04/22 08:43:20;;;;;;;25.27;15.73;;;12.80;99.90;;;;;;4993844;28;20632;-58
2022/04/22 08:45:48;;;;;;;20.33;14.10;;;12.90;99.90;;;;;;4985859;28;20171;-57
2022/04/22 08:51:02;;;;;;;22.45;15.30;;;13.00;99.90;;;;;;4985918;28;20559;-58
2022/04/22 08:53:31;;;;;;;21.95;16.40;;;13.30;99.90;;;;;;4981992;28;20412;-58
2022/04/22 08:56:01;;;;;;;21.30;14.88;;;13.50;99.90;;;;;;4984713;28;20044;-59
2022/04/22 08:58:29;;;;;;;23.05;15.55;;;13.60;99.90;;;;;;4985124;28;20046;-58
2022/04/22 09:00:59;;;;;;;21.13;13.68;;;13.30;99.90;;;;;;4985315;28;20041;-59
2022/04/22 09:03:27;;;;;;;20.02;14.48;;;13.10;99.90;;;;;;4985056;28;20045;-67
2022/04/22 09:05:56;;;;;;;21.52;15.57;;;13.00;99.90;;;;;;4984275;28;20038;-63
2022/04/22 09:08:28;;;;;;;17.42;14.40;;;13.10;99.90;;;;;;4985461;28;20045;-62
2022/04/22 09:10:56;;;;;;;23.50;15.25;;;13.10;99.90;;;;;;4984995;28;20041;-61
2022/04/22 09:13:30;;;;;;;24.27;14.88;;;13.10;99.90;;;;;;4986688;28;20045;-61
2022/04/22 09:15:58;;;;;;;25.52;14.85;;;13.10;99.90;;;;;;4992241;28;20044;-57
2022/04/22 09:18:42;;;;;;;23.05;15.95;;;13.00;99.90;;;;;;4969600;28;20053;-58
2022/04/22 09:21:16;;;;;;;21.90;14.63;;;12.70;99.90;;;;;;4984251;28;20049;-59
2022/04/22 09:23:42;;;;;;;26.55;16.27;;;12.60;99.90;;;;;;4984349;28;20617;-58
2022/04/22 09:26:23;;;;;;;21.83;14.98;;;12.70;99.90;;;;;;4983090;28;20127;-58
2022/04/22 09:29:10;;;;;;;20.77;15.27;;;12.80;99.90;;;;;;4981068;28;20052;-58
2022/04/22 09:31:48;;;;;;;17.77;14.75;;;12.80;99.90;;;;;;4980151;28;20042;-56
2022/04/22 09:34:14;;;;;;;15.95;13.68;;;12.70;99.90;;;;;;4979412;28;20555;-58
2022/04/22 09:45:01;;;;;;;18.35;15.57;;;12.90;99.90;;;;;;4984067;28;20503;-57
2022/04/22 09:47:32;;;;;;;21.85;15.40;;;13.10;99.90;;;;;;4980963;28;20648;-58
2022/04/22 09:50:10;;;;;;;19.13;15.75;;;13.20;99.90;;;;;;4982186;28;20037;-58
2022/04/22 09:52:43;;;;;;;23.73;16.52;;;13.20;99.90;;;;;;4982967;28;20042;-59
2022/04/22 09:55:16;;;;;;;23.85;14.77;;;13.20;99.50;;;;;;4980754;28;20600;-58
2022/04/22 09:57:57;;;;;;;17.70;14.73;;;12.90;99.70;;;;;;4981646;28;20049;-58
2022/04/22 10:00:26;;;;;;;22.77;15.95;;;12.80;99.90;;;;;;4983221;28;20060;-60
2022/04/22 10:02:54;;;;;;;21.38;15.63;;;12.80;99.90;;;;;;4981196;28;20388;-59
2022/04/22 10:05:31;;;;;;;16.10;13.40;;;12.80;99.90;;;;;;4971575;28;20308;-59
2022/04/22 10:08:02;;;;;;;18.30;14.80;;;12.90;99.90;;;;;;4960680;28;20610;-59
2022/04/22 10:10:39;;;;;;;25.55;14.65;;;13.20;99.90;;;;;;4992527;28;20045;-59
2022/04/22 10:13:12;;;;;;;17.30;14.27;;;13.40;99.90;;;;;;4984407;28;20100;-59
2022/04/22 10:15:40;;;;;;;21.30;15.20;;;13.50;99.90;;;;;;4991606;28;20028;-58
2022/04/22 10:18:13;;;;;;;18.88;14.45;;;13.80;99.80;;;;;;4968728;28;20169;-57
2022/04/22 10:20:40;;;;;;;17.75;14.10;;;14.10;99.90;;;;;;4979738;28;20084;-59
2022/04/22 10:23:08;;;;;;;18.58;15.55;;;14.40;98.90;;;;;;4988648;28;20069;-59
2022/04/22 10:25:35;;;;;;;17.65;14.75;;;14.90;97.60;;;;;;4987871;28;20656;-58
2022/04/22 10:28:06;;;;;;;18.52;13.68;;;15.20;97.50;;;;;;4984969;28;20156;-59
2022/04/22 10:30:34;;;;;;;13.65;12.23;;;15.50;96.50;;;;;;4988050;28;20041;-60
2022/04/22 10:33:02;;;;;;;21.45;13.45;;;15.90;95.10;;;;;;4985649;28;20033;-60
2022/04/22 10:35:29;;;;;;;19.38;15.18;;;16.00;93.70;;;;;;4985236;28;20058;-60
2022/04/22 10:37:59;;;;;;;20.27;14.23;;;16.10;92.60;;;;;;4985844;28;20045;-59
2022/04/22 10:40:26;;;;;;;17.63;13.82;;;16.10;90.70;;;;;;4995563;28;20585;-58
2022/04/22 10:42:55;;;;;;;17.73;13.20;;;16.30;92.80;;;;;;5003122;28;20438;-62
2022/04/22 10:48:28;;;;;;;19.35;13.85;;;16.80;90.10;;;;;;4980612;28;20046;-57
2022/04/22 10:51:00;;;;;;;28.48;15.30;;;17.10;88.70;;;;;;4985101;28;20071;-58
2022/04/22 10:53:29;;;;;;;18.13;15.27;;;17.40;90.10;;;;;;4984374;28;20498;-57
2022/04/22 10:56:24;;;;;;;17.75;14.38;;;17.70;87.90;;;;;;4986452;28;20049;-57
2022/04/22 10:59:16;;;;;;;17.77;13.90;;;18.00;80.60;;;;;;4983965;28;20415;-58
2022/04/22 11:01:46;;;;;;;17.17;14.07;;;18.10;79.60;;;;;;4984453;28;20167;-62
2022/04/22 11:04:21;;;;;;;17.50;14.38;;;18.20;81.90;;;;;;4986945;28;20045;-58
2022/04/22 11:06:48;;;;;;;16.75;13.85;;;18.40;79.60;;;;;;4984115;28;20340;-57
2022/04/22 11:09:43;;;;;;;14.38;12.88;;;18.50;75.90;;;;;;4985309;28;20441;-60
2022/04/22 11:12:10;;;;;;;18.13;14.05;;;18.70;73.90;;;;;;4986191;28;20210;-63
2022/04/22 11:14:44;;;;;;;;;;;18.90;71.50;;;;;;4986958;28;20107;-62
2022/04/22 11:17:33;;;;;;;15.80;12.93;;;19.00;70.60;;;;;;4992082;28;19925;-60
2022/04/22 11:20:00;;;;;;;14.10;12.52;;;19.00;70.30;;;;;;4987024;28;20045;-62
2022/04/22 11:22:58;;;;;;;22.10;12.70;;;19.10;68.20;;;;;;4986386;28;20497;-62
2022/04/22 11:25:27;;;;;;;21.20;13.07;;;19.10;68.00;;;;;;4983988;28;20866;-62
2022/04/22 11:27:55;;;;;;;19.95;13.65;;;19.00;66.20;;;;;;4985387;28;20069;-62
2022/04/22 11:30:23;;;;;;;20.73;13.93;;;18.90;66.50;;;;;;4986521;28;20045;-62
2022/04/22 11:32:56;;;;;;;15.35;12.05;;;18.70;65.50;;;;;;4987337;28;20237;-61
2022/04/22 11:35:34;;;;;;;18.27;14.27;;;18.50;65.80;;;;;;4980044;28;20044;-63
2022/04/22 11:38:06;;;;;;;16.17;13.23;;;18.50;68.60;;;;;;4985863;28;20056;-63
2022/04/22 11:40:35;;;;;;;19.25;13.30;;;18.50;65.20;;;;;;4994771;28;20056;-62
2022/04/22 11:43:21;;;;;;;18.65;13.63;;;18.50;66.80;;;;;;5001724;28;20046;-63
2022/04/22 11:45:50;;;;;;;13.80;11.80;;;18.60;66.80;;;;;;4966030;28;20034;-62
2022/04/22 11:48:22;;;;;;;17.23;11.93;;;18.70;65.40;;;;;;4973921;28;20041;-62
2022/04/22 11:50:50;;;;;;;15.98;12.20;;;18.70;64.80;;;;;;4984967;28;20897;-61
2022/04/22 11:53:26;;;;;;;15.95;12.55;;;18.70;62.00;;;;;;4985091;28;20207;-62
2022/04/22 11:55:53;;;;;;;14.30;11.35;;;18.60;64.80;;;;;;4985200;28;20045;-62
2022/04/22 11:58:21;;;;;;;14.70;11.45;;;18.70;64.30;;;;;;4985423;28;20144;-61
2022/04/22 12:06:30;;;;;;;16.63;12.68;;;19.10;61.20;;;;;;4986047;28;20080;-58
2022/04/22 12:09:02;;;;;;;18.25;12.93;;;19.10;60.80;;;;;;4984913;28;20381;-60
2022/04/22 12:11:29;;;;;;;18.95;12.05;;;19.00;60.30;;;;;;4986944;28;20055;-59
2022/04/22 12:13:56;;;;;;;16.90;13.07;;;19.10;63.30;;;;;;4984026;28;20053;-59
2022/04/22 12:16:26;;;;;;;18.02;11.75;;;19.10;60.30;;;;;;4992102;28;20132;-59
2022/04/22 12:18:54;;;;;;;15.90;12.63;;;19.10;59.70;;;;;;4984024;28;20053;-57
2022/04/22 12:21:23;;;;;;;17.35;12.45;;;19.10;59.70;;;;;;4984176;28;20045;-59
2022/04/22 12:23:52;;;;;;;20.20;14.05;;;19.20;60.30;;;;;;4983719;28;20038;-59
2022/04/22 12:26:20;;;;;;;15.27;13.15;;;19.30;58.40;;;;;;4985087;28;20037;-59
2022/04/22 12:29:17;;;;;;;14.52;12.88;;;19.30;61.00;;;;;;4980469;28;20054;-61
2022/04/22 12:31:54;;;;;;;19.13;13.20;;;19.40;59.90;;;;;;4985754;28;20131;-65
2022/04/22 12:34:34;;;;;;;16.90;14.23;;;19.50;59.40;;;;;;4983390;28;20462;-63
2022/04/22 12:37:03;;;;;;;14.80;12.75;;;19.70;60.40;;;;;;4976248;28;20038;-64
2022/04/22 12:39:41;;;;;;;16.65;14.48;;;19.90;58.70;;;;;;4981568;28;20120;-58
2022/04/22 12:42:18;;;;;;;15.40;13.75;;;20.10;59.30;;;;;;5004576;28;20150;-57
2022/04/22 12:53:29;;;;;;;25.98;17.70;;;20.50;57.70;;;;;;4984631;28;20041;-63
2022/04/22 12:56:05;;;;;;;19.33;14.43;;;20.30;57.80;;;;;;4982175;28;20057;-62
2022/04/22 12:58:32;;;;;;;16.45;12.43;;;20.30;57.60;;;;;;4983738;28;20835;-63
2022/04/22 13:01:02;;;;;;;20.67;15.25;;;20.30;59.20;;;;;;4982991;28;20151;-63
2022/04/22 13:03:39;;;;;;;18.38;14.55;;;20.40;58.60;;;;;;4983270;28;20049;-64
2022/04/22 13:06:06;;;;;;;18.90;14.93;;;20.60;55.30;;;;;;4984958;28;20278;-63
2022/04/22 13:08:33;;;;;;;25.70;15.00;;;20.80;56.90;;;;;;4983135;28;20524;-64
2022/04/22 13:11:02;;;;;;;17.63;14.20;;;20.80;54.90;;;;;;4982660;28;20531;-64
2022/04/22 13:13:29;;;;;;;21.05;15.45;;;20.80;54.40;;;;;;4983999;28;20155;-65
2022/04/22 13:15:56;;;;;;;23.13;17.05;;;20.80;56.60;;;;;;4988412;28;20045;-64
2022/04/22 13:18:22;;;;;;;21.70;14.30;;;20.90;57.20;;;;;;4981935;28;20079;-63
2022/04/22 13:20:51;;;;;;;17.17;13.98;;;20.80;54.60;;;;;;4991113;28;20045;-64
2022/04/22 13:23:18;;;;;;;18.40;15.07;;;20.70;56.40;;;;;;5000952;28;20818;-64
2022/04/22 13:25:45;;;;;;;18.00;15.60;;;20.70;56.20;;;;;;4998841;28;20271;-64
2022/04/22 13:28:12;;;;;;;17.92;16.02;;;20.80;55.80;;;;;;4988247;28;20533;-62
2022/04/22 13:30:39;;;;;;;21.60;17.88;;;20.80;55.50;;;;;;4983918;28;20041;-62
2022/04/22 13:33:06;;;;;;;20.27;16.15;;;20.70;57.30;;;;;;4992219;28;20348;-64
2022/04/22 13:35:33;;;;;;;16.80;14.15;;;20.80;57.30;;;;;;4980871;28;20141;-63
2022/04/22 13:38:00;;;;;;;17.83;15.73;;;20.80;56.00;;;;;;4981687;28;20053;-63
2022/04/22 13:40:27;;;;;;;18.13;16.23;;;20.80;56.20;;;;;;4996641;28;20566;-63
2022/04/22 13:42:53;;;;;;;20.30;16.63;;;20.80;55.80;;;;;;5001640;28;20754;-63
2022/04/22 13:53:38;;;;;;;20.70;14.38;;;21.10;52.40;;;;;;4983191;28;20118;-64
2022/04/22 13:56:05;;;;;;;16.38;14.32;;;21.10;53.00;;;;;;4983148;28;20041;-63
2022/04/22 13:58:33;;;;;;;17.02;13.68;;;21.10;53.20;;;;;;4982590;28;20041;-65
2022/04/22 14:01:02;;;;;;;16.75;14.93;;;21.20;53.80;;;;;;4984084;28;20133;-63
2022/04/22 14:03:30;;;;;;;14.57;12.00;;;21.10;54.20;;;;;;4981603;28;20038;-63
2022/04/22 14:05:57;;;;;;;13.85;12.45;;;21.10;53.40;;;;;;4984149;28;20041;-63
2022/04/22 14:08:24;;;;;;;16.90;13.77;;;21.00;52.40;;;;;;4980327;28;20846;-63